Time;durP1;ratioP1;P1;durP2;ratioP2;P2;SDS_P1;SDS_P2;PMS_P1;PMS_P2;Temp;Humidity;BMP_temperature;BMP_pressure;BME280_temperature;BME280_humidity;BME280_pressure;Samples;Min_cycle;Max_cycle;Signal;HPM_P1;HPM_P2
2022/10/03 00:02:34;;;;;;;13.70;3.15;;;9.60;99.90;;;;;;5072772;28;20063;-69
2022/10/03 00:05:09;;;;;;;15.00;3.28;;;9.70;99.90;;;;;;5057229;28;20087;-67
2022/10/03 00:08:17;;;;;;;16.40;3.65;;;9.60;99.90;;;;;;5088394;28;20672;-69
2022/10/03 00:11:19;;;;;;;15.50;3.35;;;9.60;99.90;;;;;;5066335;28;20079;-69
2022/10/03 00:14:23;;;;;;;14.65;3.50;;;9.60;99.90;;;;;;5053755;28;20044;-69
2022/10/03 00:16:52;;;;;;;14.75;3.70;;;9.50;99.90;;;;;;5069137;28;20036;-69
2022/10/03 00:19:35;;;;;;;16.35;4.38;;;9.50;99.90;;;;;;5069827;28;20077;-69
2022/10/03 00:22:01;;;;;;;16.52;3.78;;;9.50;99.90;;;;;;5070987;28;20032;-69
2022/10/03 00:24:46;;;;;;;17.20;3.60;;;9.50;99.90;;;;;;5070916;28;20097;-69
2022/10/03 00:27:34;;;;;;;11.50;3.30;;;9.50;99.90;;;;;;5052214;28;20191;-69
2022/10/03 00:30:21;;;;;;;18.90;3.65;;;9.50;99.90;;;;;;5071755;28;20040;-69
2022/10/03 00:33:20;;;;;;;12.57;2.88;;;9.50;99.90;;;;;;5081003;28;20083;-68
2022/10/03 00:35:52;;;;;;;16.33;3.40;;;9.50;99.90;;;;;;5091239;28;20075;-69
2022/10/03 00:38:21;;;;;;;;;;;9.50;99.90;;;;;;5072907;28;20052;-69
2022/10/03 00:40:47;;;;;;;23.65;3.42;;;9.40;99.90;;;;;;5055552;28;19931;-66
2022/10/03 00:44:03;;;;;;;13.13;2.60;;;9.40;99.90;;;;;;5072009;28;20032;-69
2022/10/03 00:47:01;;;;;;;20.77;4.28;;;9.50;99.90;;;;;;5043649;28;20051;-69
2022/10/03 00:50:05;;;;;;;15.93;3.47;;;9.40;99.90;;;;;;5089224;28;20492;-69
2022/10/03 00:52:45;;;;;;;12.43;3.30;;;9.50;99.90;;;;;;5107366;28;20055;-69
2022/10/03 00:55:17;;;;;;;15.82;2.70;;;9.40;99.90;;;;;;5075673;28;20043;-69
2022/10/03 00:57:52;;;;;;;10.93;3.13;;;9.40;99.90;;;;;;5093989;28;20501;-69
2022/10/03 01:00:30;;;;;;;14.18;3.72;;;9.40;99.90;;;;;;5059223;28;20630;-69
2022/10/03 01:03:10;;;;;;;12.05;2.85;;;9.40;99.90;;;;;;5084242;28;20035;-68
2022/10/03 01:06:05;;;;;;;14.20;3.92;;;9.30;99.90;;;;;;5065777;28;20044;-69
2022/10/03 01:08:42;;;;;;;18.17;3.33;;;9.40;99.90;;;;;;5058873;28;20119;-69
2022/10/03 01:11:23;;;;;;;21.90;3.58;;;9.40;99.90;;;;;;5075648;28;20046;-69
2022/10/03 01:14:01;;;;;;;23.90;4.22;;;9.40;99.90;;;;;;5063293;28;20238;-69
2022/10/03 01:17:17;;;;;;;8.90;2.70;;;9.30;99.90;;;;;;5078448;28;20365;-69
2022/10/03 01:20:08;;;;;;;13.80;3.30;;;9.40;99.90;;;;;;5016265;28;20511;-69
2022/10/03 01:23:01;;;;;;;9.75;3.05;;;9.40;99.90;;;;;;5077980;28;20031;-69
2022/10/03 01:25:45;;;;;;;;;;;9.30;99.90;;;;;;5094739;28;20431;-69
2022/10/03 01:31:52;;;;;;;10.30;3.15;;;9.40;99.90;;;;;;5090986;28;20040;-69
2022/10/03 01:34:37;;;;;;;20.75;3.90;;;9.30;99.90;;;;;;5065855;28;20055;-69
2022/10/03 01:37:12;;;;;;;13.38;2.75;;;9.30;99.90;;;;;;5087876;28;20070;-69
2022/10/03 01:40:29;;;;;;;12.27;3.15;;;9.30;99.90;;;;;;5058149;28;20042;-68
2022/10/03 01:43:14;;;;;;;12.32;3.00;;;9.30;99.90;;;;;;5051902;28;20043;-69
2022/10/03 01:46:03;;;;;;;11.57;3.03;;;9.30;99.90;;;;;;5077736;28;20378;-68
2022/10/03 01:48:47;;;;;;;21.73;3.80;;;9.30;99.90;;;;;;5061907;28;20043;-68
2022/10/03 01:51:41;;;;;;;16.30;3.42;;;9.30;99.90;;;;;;5080033;28;20380;-69
2022/10/03 01:54:36;;;;;;;14.93;3.20;;;9.30;99.90;;;;;;5109589;28;20032;-69
2022/10/03 01:57:09;;;;;;;13.60;3.17;;;9.30;99.90;;;;;;5087738;28;20047;-69
2022/10/03 01:59:50;;;;;;;15.32;3.20;;;9.30;99.90;;;;;;5111954;28;20562;-69
2022/10/03 02:02:45;;;;;;;25.25;4.35;;;9.30;99.90;;;;;;5084170;28;20050;-69
2022/10/03 02:05:14;;;;;;;11.20;4.18;;;9.20;99.90;;;;;;5074682;28;20396;-69
2022/10/03 02:08:00;;;;;;;13.93;3.20;;;9.20;99.90;;;;;;5075057;28;20082;-69
2022/10/03 02:10:54;;;;;;;14.93;3.47;;;9.20;99.90;;;;;;5079464;28;20032;-69
2022/10/03 02:13:46;;;;;;;28.55;5.22;;;9.20;99.90;;;;;;5091913;28;20036;-69
2022/10/03 02:16:21;;;;;;;17.50;3.67;;;9.20;99.90;;;;;;5063946;28;20424;-69
2022/10/03 02:19:04;;;;;;;10.75;3.80;;;9.20;99.90;;;;;;5085509;28;20043;-69
2022/10/03 02:21:32;;;;;;;13.52;3.10;;;9.20;99.90;;;;;;5086117;28;20035;-69
2022/10/03 02:24:06;;;;;;;10.45;3.38;;;9.20;99.90;;;;;;5093310;28;20430;-69
2022/10/03 02:26:34;;;;;;;13.35;3.67;;;9.20;99.90;;;;;;5068886;28;20043;-68
2022/10/03 02:29:28;;;;;;;10.75;3.38;;;9.30;99.90;;;;;;5080913;28;20075;-69
2022/10/03 02:32:18;;;;;;;15.73;3.58;;;9.30;99.90;;;;;;5082771;28;20493;-68
2022/10/03 02:35:06;;;;;;;14.45;4.07;;;9.30;99.90;;;;;;5092736;28;20073;-69
2022/10/03 02:37:47;;;;;;;14.25;3.78;;;9.30;99.90;;;;;;5092954;28;20036;-69
2022/10/03 02:40:22;;;;;;;9.73;3.15;;;9.20;99.90;;;;;;5082981;28;20041;-68
2022/10/03 02:42:50;;;;;;;18.45;4.28;;;9.20;99.90;;;;;;5089537;28;20036;-68
2022/10/03 02:45:55;;;;;;;14.95;4.25;;;9.20;99.90;;;;;;5092002;28;20107;-67
2022/10/03 02:48:43;;;;;;;17.00;3.20;;;9.10;99.90;;;;;;5073578;28;20040;-69
2022/10/03 02:51:30;;;;;;;12.60;3.30;;;9.10;99.90;;;;;;5089642;28;20039;-69
2022/10/03 02:54:25;;;;;;;9.63;3.00;;;9.10;99.90;;;;;;5071434;28;20879;-69
2022/10/03 02:57:03;;;;;;;12.45;3.40;;;9.00;99.90;;;;;;5092296;28;20092;-69
2022/10/03 02:59:58;;;;;;;13.10;2.78;;;9.00;99.90;;;;;;5089501;28;20075;-69
2022/10/03 03:02:48;;;;;;;10.98;2.47;;;9.00;99.90;;;;;;5087361;28;20165;-68
2022/10/03 03:05:33;;;;;;;15.15;3.35;;;8.90;99.90;;;;;;5072112;28;20127;-69
2022/10/03 03:08:23;;;;;;;12.15;3.05;;;8.90;99.90;;;;;;5072408;28;20079;-69
2022/10/03 03:11:07;;;;;;;13.73;3.08;;;8.90;99.90;;;;;;5082256;28;20043;-69
2022/10/03 03:14:09;;;;;;;13.90;3.17;;;8.90;99.90;;;;;;5060078;28;20055;-69
2022/10/03 03:16:59;;;;;;;16.58;3.72;;;8.90;99.90;;;;;;5059338;28;20047;-69
2022/10/03 03:20:09;;;;;;;11.20;3.08;;;8.90;99.90;;;;;;5073078;28;20039;-69
2022/10/03 03:22:49;;;;;;;12.85;3.08;;;8.90;99.90;;;;;;5086021;28;20043;-69
2022/10/03 03:25:42;;;;;;;11.00;2.72;;;8.90;99.90;;;;;;5088251;28;20100;-68
2022/10/03 03:28:10;;;;;;;19.15;3.70;;;8.90;99.90;;;;;;5070391;28;20039;-69
2022/10/03 03:31:00;;;;;;;11.50;2.90;;;8.90;99.90;;;;;;5072987;28;20044;-69
2022/10/03 03:33:38;;;;;;;14.32;3.28;;;8.90;99.90;;;;;;5066073;28;20035;-68
2022/10/03 03:36:40;;;;;;;16.67;3.28;;;8.90;99.90;;;;;;5072091;28;20130;-69
2022/10/03 03:39:33;;;;;;;14.57;3.03;;;8.90;99.90;;;;;;5072977;28;20067;-69
2022/10/03 03:42:17;;;;;;;10.93;2.78;;;8.90;99.90;;;;;;5071194;28;20052;-69
2022/10/03 03:44:55;;;;;;;7.40;2.88;;;8.90;99.90;;;;;;5086528;28;20043;-69
2022/10/03 03:47:24;;;;;;;13.60;3.03;;;8.90;99.90;;;;;;5063394;28;20055;-69
2022/10/03 03:50:21;;;;;;;16.60;3.67;;;8.90;99.90;;;;;;5091376;28;20067;-69
2022/10/03 03:53:24;;;;;;;15.93;3.30;;;8.90;99.90;;;;;;5082112;28;20056;-69
2022/10/03 03:55:54;;;;;;;;;;;8.90;99.90;;;;;;5079983;28;20383;-69
2022/10/03 03:58:46;;;;;;;13.70;3.08;;;9.00;99.90;;;;;;5073110;28;19923;-69
2022/10/03 04:01:32;;;;;;;11.50;3.10;;;8.90;99.90;;;;;;5082629;28;20032;-69
2022/10/03 04:04:48;;;;;;;15.23;3.08;;;8.90;99.90;;;;;;5088597;28;20039;-68
2022/10/03 04:07:26;;;;;;;13.00;2.97;;;8.90;99.90;;;;;;5021137;28;20043;-69
2022/10/03 04:10:22;;;;;;;20.20;2.92;;;8.90;99.90;;;;;;5091435;28;20049;-69
2022/10/03 04:13:26;;;;;;;12.05;2.88;;;8.90;99.90;;;;;;5091554;28;20089;-69
2022/10/03 04:16:01;;;;;;;13.43;2.67;;;9.00;99.90;;;;;;5075001;28;20060;-69
2022/10/03 04:18:57;;;;;;;10.98;2.63;;;9.00;99.90;;;;;;5070869;28;20214;-69
2022/10/03 04:21:44;;;;;;;14.13;2.85;;;9.00;99.90;;;;;;5087931;28;20036;-69
2022/10/03 04:24:35;;;;;;;11.13;3.10;;;9.00;99.90;;;;;;5092898;28;20066;-69
2022/10/03 04:27:22;;;;;;;13.85;2.90;;;9.00;99.90;;;;;;5094042;28;20393;-69
2022/10/03 04:30:06;;;;;;;11.38;2.70;;;9.00;99.90;;;;;;5102850;28;20389;-69
2022/10/03 04:32:56;;;;;;;14.98;3.20;;;9.00;99.90;;;;;;5085660;28;20373;-69
2022/10/03 04:35:31;;;;;;;13.70;3.35;;;9.00;99.90;;;;;;5095079;28;20523;-69
2022/10/03 04:38:22;;;;;;;15.18;2.88;;;8.90;99.90;;;;;;5078334;28;20427;-70
2022/10/03 04:41:26;;;;;;;9.45;2.60;;;8.90;99.90;;;;;;5076082;28;20050;-69
2022/10/03 04:44:10;;;;;;;10.88;3.03;;;8.90;99.90;;;;;;5074213;28;20059;-69
2022/10/03 04:46:47;;;;;;;10.32;2.95;;;8.80;99.90;;;;;;5077771;28;20073;-69
2022/10/03 04:49:39;;;;;;;12.85;3.17;;;8.80;99.90;;;;;;5076609;28;20513;-70
2022/10/03 04:52:46;;;;;;;10.38;2.50;;;8.80;99.90;;;;;;5077932;28;20071;-69
2022/10/03 04:55:32;;;;;;;11.82;3.10;;;8.90;99.90;;;;;;5037264;28;20136;-69
2022/10/03 04:58:13;;;;;;;10.70;2.75;;;8.80;99.90;;;;;;5090718;28;20102;-69
2022/10/03 05:01:05;;;;;;;11.68;2.72;;;8.90;99.90;;;;;;5094015;28;20114;-69
2022/10/03 05:03:53;;;;;;;16.23;2.92;;;8.90;99.90;;;;;;5094938;28;20039;-69
2022/10/03 05:06:40;;;;;;;13.10;3.08;;;8.90;99.90;;;;;;5075877;28;20134;-69
2022/10/03 05:09:40;;;;;;;12.43;2.80;;;8.90;99.90;;;;;;5059170;28;20036;-69
2022/10/03 05:12:09;;;;;;;10.27;2.53;;;8.90;99.90;;;;;;5105429;28;20043;-69
2022/10/03 05:14:58;;;;;;;12.75;3.10;;;8.90;99.90;;;;;;5075496;28;20489;-69
2022/10/03 05:17:45;;;;;;;13.02;2.90;;;8.90;99.90;;;;;;5108422;28;20034;-70
2022/10/03 05:20:35;;;;;;;11.20;2.28;;;8.90;99.90;;;;;;5067173;28;20031;-69
2022/10/03 05:23:29;;;;;;;7.63;2.53;;;8.80;99.90;;;;;;5074847;28;20060;-70
2022/10/03 05:26:33;;;;;;;12.40;2.90;;;8.80;99.90;;;;;;5060681;28;20074;-70
2022/10/03 05:29:20;;;;;;;16.63;2.95;;;8.80;99.90;;;;;;5092248;28;20040;-69
2022/10/03 05:32:05;;;;;;;11.32;2.92;;;8.80;99.90;;;;;;5085608;28;20451;-69
2022/10/03 05:35:11;;;;;;;16.77;3.42;;;8.80;99.90;;;;;;5100667;28;20519;-70
2022/10/03 05:37:57;;;;;;;13.05;2.63;;;8.70;99.90;;;;;;5092848;28;20499;-70
2022/10/03 05:40:25;;;;;;;8.13;2.40;;;8.70;99.90;;;;;;5082039;28;20034;-70
2022/10/03 05:42:51;;;;;;;6.20;2.15;;;8.60;99.90;;;;;;5093029;28;20035;-69
2022/10/03 05:45:30;;;;;;;18.52;4.00;;;8.60;99.90;;;;;;5080098;28;20040;-69
2022/10/03 05:48:25;;;;;;;15.18;4.20;;;8.50;99.90;;;;;;5088308;28;20527;-69
2022/10/03 05:51:12;;;;;;;18.52;4.53;;;8.50;99.90;;;;;;5074503;28;20481;-70
2022/10/03 05:54:08;;;;;;;11.60;4.10;;;8.50;99.90;;;;;;5092089;28;20073;-70
2022/10/03 05:56:59;;;;;;;11.93;3.30;;;8.50;99.90;;;;;;5063482;28;20050;-69
2022/10/03 05:59:58;;;;;;;10.57;3.47;;;8.50;99.90;;;;;;5111310;28;20078;-70
2022/10/03 06:02:51;;;;;;;12.55;3.03;;;8.50;99.90;;;;;;5086384;28;20040;-70
2022/10/03 06:05:35;;;;;;;7.65;2.58;;;8.50;99.90;;;;;;5073711;28;20160;-70
2022/10/03 06:08:52;;;;;;;8.25;3.47;;;8.50;99.90;;;;;;5073490;28;20040;-69
2022/10/03 06:11:30;;;;;;;11.02;3.05;;;8.50;99.90;;;;;;5038857;28;20075;-70
2022/10/03 06:14:40;;;;;;;13.77;3.03;;;8.50;99.90;;;;;;5076096;28;20515;-70
2022/10/03 06:17:26;;;;;;;9.48;3.03;;;8.40;99.90;;;;;;5075838;28;20036;-70
2022/10/03 06:20:29;;;;;;;7.18;2.97;;;8.40;99.90;;;;;;5091586;28;20523;-70
2022/10/03 06:23:28;;;;;;;17.50;4.55;;;8.40;99.90;;;;;;5090690;28;20028;-69
2022/10/03 06:26:09;;;;;;;16.05;3.55;;;8.40;99.90;;;;;;5087452;28;20048;-70
2022/10/03 06:28:50;;;;;;;15.70;4.13;;;8.50;99.90;;;;;;5084453;28;20055;-70
2022/10/03 06:31:41;;;;;;;19.35;4.15;;;8.50;99.90;;;;;;5075454;28;20040;-70
2022/10/03 06:34:41;;;;;;;12.90;3.83;;;8.50;99.90;;;;;;5073037;28;20052;-70
2022/10/03 06:37:28;;;;;;;10.52;3.47;;;8.50;99.90;;;;;;5084413;28;20047;-70
2022/10/03 06:40:09;;;;;;;10.18;3.40;;;8.50;99.90;;;;;;5092209;28;20055;-70
2022/10/03 06:43:00;;;;;;;10.77;3.40;;;8.50;99.90;;;;;;5091950;28;20036;-70
2022/10/03 06:46:00;;;;;;;11.82;3.05;;;8.60;99.90;;;;;;5073118;28;20038;-70
2022/10/03 06:49:04;;;;;;;9.18;3.33;;;8.70;99.90;;;;;;5058274;28;20474;-69
2022/10/03 06:51:59;;;;;;;9.55;3.40;;;8.80;99.90;;;;;;5082267;28;20039;-69
2022/10/03 06:55:06;;;;;;;13.73;3.08;;;8.90;99.90;;;;;;5063550;28;20036;-69
2022/10/03 06:58:04;;;;;;;7.25;2.95;;;9.00;99.90;;;;;;5097533;28;20483;-69
2022/10/03 07:01:02;;;;;;;9.52;3.72;;;9.10;99.90;;;;;;5072882;28;20038;-69
2022/10/03 07:03:39;;;;;;;13.52;3.08;;;9.20;99.90;;;;;;5073036;28;20043;-69
2022/10/03 07:06:36;;;;;;;11.02;3.17;;;9.30;99.90;;;;;;5086131;28;20694;-69
2022/10/03 07:09:27;;;;;;;13.80;4.53;;;9.30;99.90;;;;;;5072740;28;20051;-69
2022/10/03 07:12:20;;;;;;;14.05;3.33;;;9.40;99.90;;;;;;5074881;28;20039;-69
2022/10/03 07:15:04;;;;;;;14.27;3.42;;;9.40;99.90;;;;;;5088621;28;20024;-69
2022/10/03 07:17:55;;;;;;;10.63;3.17;;;9.40;99.90;;;;;;5091510;28;20450;-69
2022/10/03 07:20:58;;;;;;;14.32;3.35;;;9.50;99.90;;;;;;5091426;28;20479;-69
2022/10/03 07:23:42;;;;;;;17.48;2.90;;;9.50;99.90;;;;;;5077559;28;20488;-69
2022/10/03 07:26:10;;;;;;;15.00;3.22;;;9.60;99.90;;;;;;5072499;28;20085;-69
2022/10/03 07:29:05;;;;;;;8.77;2.50;;;9.70;99.90;;;;;;5072258;28;20047;-69
2022/10/03 07:31:36;;;;;;;7.45;2.50;;;9.80;99.90;;;;;;5077352;28;20282;-69
2022/10/03 07:34:40;;;;;;;15.57;3.80;;;9.90;99.90;;;;;;5091308;28;20051;-69
2022/10/03 07:40:53;;;;;;;8.70;2.80;;;10.00;99.90;;;;;;5091405;28;20504;-69
2022/10/03 07:43:40;;;;;;;12.05;2.63;;;10.10;99.90;;;;;;4989843;28;20034;-70
2022/10/03 07:46:23;;;;;;;12.70;2.95;;;10.10;99.90;;;;;;4972734;28;20500;-69
2022/10/03 07:49:08;;;;;;;10.13;3.03;;;10.20;99.90;;;;;;5063704;28;20492;-69
2022/10/03 07:51:42;;;;;;;10.75;3.20;;;10.30;99.90;;;;;;5088455;28;20401;-69
2022/10/03 07:54:23;;;;;;;8.38;2.72;;;10.30;99.90;;;;;;5090314;28;20071;-69
2022/10/03 07:56:59;;;;;;;13.80;3.25;;;10.40;99.90;;;;;;5074060;28;20043;-69
2022/10/03 07:59:34;;;;;;;8.98;2.78;;;10.50;99.90;;;;;;5059352;28;20119;-69
2022/10/03 08:02:21;;;;;;;7.95;3.17;;;10.60;99.90;;;;;;5089955;28;20032;-69
2022/10/03 08:04:49;;;;;;;15.27;4.47;;;10.60;99.90;;;;;;5072414;28;20050;-70
2022/10/03 08:07:51;;;;;;;11.07;2.67;;;10.60;99.90;;;;;;5055128;28;20047;-69
2022/10/03 08:10:36;;;;;;;17.85;3.30;;;10.80;99.90;;;;;;5082471;28;20065;-69
2022/10/03 08:13:05;;;;;;;8.77;2.80;;;10.90;99.90;;;;;;5072252;28;20519;-69
2022/10/03 08:16:01;;;;;;;10.13;2.70;;;11.10;99.90;;;;;;5072103;28;20032;-69
2022/10/03 08:18:29;;;;;;;12.13;2.50;;;11.30;99.90;;;;;;5089810;28;20032;-69
2022/10/03 08:21:00;;;;;;;11.68;2.90;;;11.40;99.90;;;;;;5091042;28;20043;-69
2022/10/03 08:24:01;;;;;;;5.57;1.92;;;11.50;99.90;;;;;;5074261;28;20038;-69
2022/10/03 08:26:57;;;;;;;15.10;2.92;;;11.60;99.90;;;;;;5073186;28;20035;-69
2022/10/03 08:29:36;;;;;;;5.05;1.98;;;11.70;99.90;;;;;;5064954;28;20058;-69
2022/10/03 08:32:32;;;;;;;9.38;2.45;;;11.90;99.90;;;;;;5077243;28;20479;-70
2022/10/03 08:35:37;;;;;;;9.05;2.70;;;12.10;99.90;;;;;;5072263;28;20037;-69
2022/10/03 08:38:08;;;;;;;12.18;2.40;;;12.50;99.90;;;;;;5066829;28;20047;-69
2022/10/03 08:41:08;;;;;;;15.75;2.78;;;12.80;99.90;;;;;;5088676;28;20039;-69
2022/10/03 08:44:07;;;;;;;10.35;3.10;;;13.00;99.90;;;;;;5087447;28;20036;-69
2022/10/03 08:47:01;;;;;;;7.40;2.63;;;13.30;99.90;;;;;;5045629;28;20044;-70
2022/10/03 08:49:45;;;;;;;12.02;3.00;;;13.60;99.90;;;;;;5068096;28;20116;-69
2022/10/03 08:52:41;;;;;;;13.82;2.67;;;13.80;99.90;;;;;;5051565;28;20037;-69
2022/10/03 08:55:44;;;;;;;7.70;2.63;;;14.00;99.90;;;;;;5068164;28;20099;-69
2022/10/03 08:58:28;;;;;;;14.45;2.78;;;14.20;99.90;;;;;;5051940;28;20043;-69
2022/10/03 09:01:21;;;;;;;9.07;2.40;;;14.30;99.90;;;;;;5068382;28;20047;-69
2022/10/03 09:04:10;;;;;;;9.18;3.13;;;14.40;99.90;;;;;;5051671;28;20498;-69
2022/10/03 09:06:45;;;;;;;7.35;2.22;;;14.50;99.90;;;;;;5076486;28;20418;-69
2022/10/03 09:09:26;;;;;;;8.60;2.30;;;14.60;99.90;;;;;;5073837;28;20036;-69
2022/10/03 09:12:22;;;;;;;7.30;2.08;;;14.70;99.90;;;;;;5091873;28;20032;-69
2022/10/03 09:15:02;;;;;;;9.77;2.17;;;14.90;99.90;;;;;;5090332;28;20040;-69
2022/10/03 09:18:06;;;;;;;8.27;2.13;;;15.00;99.90;;;;;;5086898;28;20500;-70
2022/10/03 09:20:53;;;;;;;10.70;2.08;;;15.10;99.90;;;;;;5071203;28;20024;-69
2022/10/03 09:23:51;;;;;;;8.05;2.08;;;15.20;99.90;;;;;;5072684;28;20059;-69
2022/10/03 09:26:35;;;;;;;12.40;2.28;;;15.30;99.90;;;;;;5071600;28;20044;-69
2022/10/03 09:29:19;;;;;;;8.30;1.95;;;15.40;99.90;;;;;;5071206;28;20491;-69
2022/10/03 09:32:18;;;;;;;5.90;2.35;;;15.50;99.90;;;;;;5085995;28;20039;-69
2022/10/03 09:35:03;;;;;;;13.55;2.05;;;15.50;99.90;;;;;;5091153;28;20052;-69
2022/10/03 09:37:43;;;;;;;12.35;2.17;;;15.60;99.90;;;;;;5069872;28;20056;-69
2022/10/03 09:40:47;;;;;;;10.35;2.30;;;15.80;99.90;;;;;;5092683;28;20444;-69
2022/10/03 09:43:29;;;;;;;11.02;2.33;;;15.90;99.90;;;;;;5075242;28;20032;-69
2022/10/03 09:46:00;;;;;;;6.18;1.60;;;15.90;99.90;;;;;;5074580;28;20043;-69
2022/10/03 09:48:45;;;;;;;9.63;1.80;;;16.00;99.90;;;;;;5092310;28;20666;-69
2022/10/03 09:51:20;;;;;;;5.53;1.70;;;16.10;99.90;;;;;;5074241;28;20036;-69
2022/10/03 09:54:23;;;;;;;6.45;2.17;;;16.20;99.90;;;;;;5075699;28;20063;-69
2022/10/03 09:57:17;;;;;;;10.18;2.17;;;16.30;99.90;;;;;;5092039;28;20071;-69
2022/10/03 09:59:58;;;;;;;4.13;1.80;;;16.40;99.90;;;;;;5107144;28;20036;-69
2022/10/03 10:02:53;;;;;;;17.17;2.25;;;16.50;99.90;;;;;;5092582;28;20055;-69
2022/10/03 10:05:53;;;;;;;4.65;1.35;;;16.60;99.90;;;;;;5094347;28;20105;-69
2022/10/03 10:08:28;;;;;;;8.40;2.20;;;16.50;99.90;;;;;;5073673;28;20552;-69
2022/10/03 10:11:13;;;;;;;7.65;1.80;;;16.50;99.90;;;;;;5073836;28;20039;-69
2022/10/03 10:14:01;;;;;;;5.57;1.63;;;16.60;99.90;;;;;;5103317;28;20039;-69
2022/10/03 10:17:22;;;;;;;5.20;1.27;;;16.60;99.90;;;;;;5110550;28;20511;-69
2022/10/03 10:19:53;;;;;;;7.78;1.65;;;16.60;99.90;;;;;;5083028;28;20810;-69
2022/10/03 10:23:04;;;;;;;5.82;1.25;;;16.70;99.90;;;;;;5092948;28;20028;-69
2022/10/03 10:25:45;;;;;;;7.15;1.67;;;16.70;99.90;;;;;;5073908;28;20117;-69
2022/10/03 10:28:26;;;;;;;5.50;1.50;;;16.80;99.90;;;;;;5073469;28;20054;-69
2022/10/03 10:31:04;;;;;;;4.75;1.58;;;16.80;99.90;;;;;;5074198;28;20043;-69
2022/10/03 10:33:50;;;;;;;3.75;1.65;;;16.90;99.90;;;;;;5073707;28;20119;-69
2022/10/03 10:36:54;;;;;;;5.50;1.77;;;17.00;99.90;;;;;;5087576;28;20522;-69
2022/10/03 10:39:57;;;;;;;5.47;1.65;;;17.00;99.90;;;;;;5071474;28;20067;-69
2022/10/03 10:42:45;;;;;;;10.68;2.05;;;17.00;99.90;;;;;;5079992;28;20437;-69
2022/10/03 10:45:38;;;;;;;4.88;1.45;;;17.10;99.90;;;;;;5101018;28;20035;-70
2022/10/03 10:48:40;;;;;;;9.45;2.03;;;17.20;99.90;;;;;;5073908;28;20047;-69
2022/10/03 10:51:11;;;;;;;4.97;1.80;;;17.30;99.90;;;;;;5084466;28;20122;-69
2022/10/03 10:53:56;;;;;;;5.07;1.50;;;17.30;99.90;;;;;;5080871;28;20093;-69
2022/10/03 10:56:47;;;;;;;6.60;1.77;;;17.20;99.90;;;;;;5110585;28;20577;-69
2022/10/03 10:59:51;;;;;;;7.72;1.80;;;17.20;99.90;;;;;;5082589;28;20068;-69
2022/10/03 11:02:36;;;;;;;7.90;2.15;;;17.20;99.90;;;;;;5075967;28;20503;-70
2022/10/03 11:05:41;;;;;;;6.95;1.70;;;17.20;99.90;;;;;;5064188;28;20082;-69
2022/10/03 11:08:48;;;;;;;8.07;1.70;;;17.20;99.90;;;;;;5080196;28;20044;-69
2022/10/03 11:11:34;;;;;;;5.80;1.80;;;17.30;99.90;;;;;;5091494;28;20290;-69
2022/10/03 11:14:36;;;;;;;5.20;1.67;;;17.30;99.90;;;;;;5072476;28;20058;-68
2022/10/03 11:17:39;;;;;;;17.65;2.03;;;17.40;99.90;;;;;;5092361;28;20101;-69
2022/10/03 11:20:17;;;;;;;4.68;1.52;;;17.30;99.90;;;;;;5073041;28;20097;-68
2022/10/03 11:23:04;;;;;;;9.75;1.80;;;17.40;99.90;;;;;;5072809;28;20075;-69
2022/10/03 11:26:05;;;;;;;7.50;1.92;;;17.50;99.90;;;;;;5061760;28;20186;-69
2022/10/03 11:29:08;;;;;;;5.47;1.50;;;17.60;99.90;;;;;;5083914;28;20039;-69
2022/10/03 11:31:59;;;;;;;3.70;1.33;;;17.60;99.90;;;;;;5091822;28;20491;-69
2022/10/03 11:34:46;;;;;;;6.35;1.50;;;17.60;99.90;;;;;;5091748;28;20111;-68
2022/10/03 11:37:43;;;;;;;7.32;1.60;;;17.60;99.90;;;;;;5072678;28;20059;-69
2022/10/03 11:40:31;;;;;;;7.22;1.90;;;17.60;99.90;;;;;;5070118;28;20097;-68
2022/10/03 11:43:05;;;;;;;7.85;1.80;;;17.50;99.90;;;;;;5082724;28;20039;-69
2022/10/03 11:45:39;;;;;;;3.90;1.35;;;17.50;99.90;;;;;;5090366;28;20039;-68
2022/10/03 11:48:23;;;;;;;11.20;1.50;;;17.40;99.90;;;;;;5091362;28;20039;-69
2022/10/03 11:51:04;;;;;;;4.88;1.60;;;17.40;99.90;;;;;;5091938;28;20035;-69
2022/10/03 11:54:03;;;;;;;5.68;1.42;;;17.40;99.90;;;;;;5055624;28;20040;-69
2022/10/03 11:56:35;;;;;;;6.60;1.50;;;17.50;99.90;;;;;;5084983;28;20046;-69
2022/10/03 11:59:23;;;;;;;8.80;1.93;;;17.50;99.90;;;;;;5072224;28;20071;-69
2022/10/03 12:02:19;;;;;;;4.60;1.50;;;17.50;99.90;;;;;;5091456;28;20110;-69
2022/10/03 12:05:01;;;;;;;7.72;1.77;;;17.60;99.90;;;;;;5072145;28;20439;-69
2022/10/03 12:10:45;;;;;;;6.88;1.30;;;17.80;99.90;;;;;;5088172;28;19919;-69
2022/10/03 12:13:36;;;;;;;7.97;1.55;;;17.70;99.90;;;;;;5072548;28;20519;-69
2022/10/03 12:16:11;;;;;;;7.63;1.80;;;17.70;99.90;;;;;;5090325;28;20040;-69
2022/10/03 12:18:41;;;;;;;5.95;1.92;;;17.80;99.90;;;;;;5091075;28;20043;-69
2022/10/03 12:21:10;;;;;;;5.65;1.35;;;17.90;99.90;;;;;;5090968;28;20483;-69
2022/10/03 12:24:02;;;;;;;4.68;1.80;;;18.00;99.90;;;;;;5109305;28;20442;-69
2022/10/03 12:26:34;;;;;;;8.73;1.45;;;18.00;99.90;;;;;;5074067;28;20040;-69
2022/10/03 12:29:02;;;;;;;6.53;1.70;;;18.20;99.90;;;;;;5091021;28;20092;-68
2022/10/03 12:31:41;;;;;;;8.57;1.80;;;18.30;99.90;;;;;;5084238;28;20035;-69
2022/10/03 12:34:19;;;;;;;3.25;1.10;;;18.40;99.90;;;;;;5070110;28;20088;-69
2022/10/03 12:37:16;;;;;;;7.03;1.23;;;18.40;99.90;;;;;;5087490;28;20044;-68
2022/10/03 12:39:51;;;;;;;6.53;1.40;;;18.40;99.90;;;;;;5071389;28;20081;-68
2022/10/03 12:42:47;;;;;;;6.68;1.58;;;18.30;99.90;;;;;;5092336;28;20086;-69
2022/10/03 12:45:25;;;;;;;7.35;1.60;;;18.20;99.90;;;;;;5089496;28;20036;-69
2022/10/03 12:48:22;;;;;;;4.70;1.40;;;18.10;99.90;;;;;;5055832;28;20036;-69
2022/10/03 12:51:06;;;;;;;3.63;1.38;;;18.10;99.90;;;;;;5072682;28;20138;-69
2022/10/03 12:53:37;;;;;;;6.80;1.95;;;18.10;99.90;;;;;;5090480;28;20028;-69
2022/10/03 12:56:12;;;;;;;11.90;1.67;;;18.00;99.90;;;;;;5074595;28;20063;-70
2022/10/03 12:58:40;;;;;;;5.90;1.42;;;18.10;99.90;;;;;;5080595;28;20131;-69
2022/10/03 13:01:27;;;;;;;7.20;1.58;;;18.10;99.90;;;;;;5085540;28;20035;-69
2022/10/03 13:04:31;;;;;;;4.28;1.42;;;18.20;99.90;;;;;;5073448;28;20036;-69
2022/10/03 13:07:12;;;;;;;3.00;1.25;;;18.30;99.90;;;;;;5046491;28;20042;-69
2022/10/03 13:10:14;;;;;;;4.53;1.58;;;18.40;99.90;;;;;;5074848;28;20425;-70
2022/10/03 13:13:18;;;;;;;3.42;1.30;;;18.50;99.90;;;;;;5085915;28;20028;-69
2022/10/03 13:15:54;;;;;;;6.10;1.58;;;18.60;99.90;;;;;;5048047;28;20041;-70
2022/10/03 13:18:46;;;;;;;7.97;1.45;;;18.60;99.90;;;;;;5071813;28;20036;-70
2022/10/03 13:21:50;;;;;;;7.35;1.48;;;18.60;99.90;;;;;;5083442;28;20541;-70
2022/10/03 13:24:25;;;;;;;3.00;1.27;;;18.60;99.90;;;;;;5091703;28;20397;-70
2022/10/03 13:27:22;;;;;;;8.00;1.58;;;18.50;99.90;;;;;;5073344;28;20048;-69
2022/10/03 13:30:17;;;;;;;5.30;1.58;;;18.30;99.90;;;;;;5100065;28;20076;-70
2022/10/03 13:33:00;;;;;;;6.95;1.38;;;18.20;99.90;;;;;;5076762;28;20052;-69
2022/10/03 13:38:35;;;;;;;8.02;1.48;;;18.00;99.90;;;;;;5094522;28;20082;-69
2022/10/03 13:41:33;;;;;;;4.00;1.55;;;18.00;99.90;;;;;;5075212;28;20044;-70
2022/10/03 13:44:43;;;;;;;6.55;1.55;;;18.00;99.90;;;;;;5062993;28;20075;-69
2022/10/03 13:47:18;;;;;;;4.03;1.08;;;18.00;99.90;;;;;;4981151;28;20107;-70
2022/10/03 13:49:54;;;;;;;3.85;1.30;;;18.00;99.90;;;;;;4990302;28;20042;-69
2022/10/03 13:52:41;;;;;;;7.55;1.60;;;18.00;99.90;;;;;;5052444;28;20031;-69
2022/10/03 13:55:19;;;;;;;7.55;1.60;;;17.90;99.90;;;;;;5093426;28;20040;-69
2022/10/03 13:57:51;;;;;;;8.35;1.50;;;17.90;99.90;;;;;;5093654;28;20039;-70
2022/10/03 14:00:23;;;;;;;6.07;1.75;;;17.90;99.90;;;;;;5091162;28;20536;-70
2022/10/03 14:03:18;;;;;;;6.38;1.48;;;17.90;99.90;;;;;;5058012;28;20036;-69
2022/10/03 14:05:57;;;;;;;6.22;1.45;;;17.80;99.90;;;;;;5058381;28;20058;-70
2022/10/03 14:08:47;;;;;;;5.47;1.50;;;17.80;99.90;;;;;;5074721;28;20040;-70
2022/10/03 14:11:42;;;;;;;5.28;1.40;;;17.80;99.90;;;;;;5075204;28;20050;-70
2022/10/03 14:14:49;;;;;;;9.02;1.45;;;17.80;99.90;;;;;;5091060;28;20169;-69
2022/10/03 14:18:12;;;;;;;12.50;1.85;;;17.70;99.90;;;;;;5076968;28;20038;-69
2022/10/03 14:21:11;;;;;;;6.20;1.60;;;17.70;99.90;;;;;;5031959;28;20066;-70
2022/10/03 14:23:45;;;;;;;4.20;1.50;;;17.60;99.90;;;;;;5013102;28;20049;-69
2022/10/03 14:26:28;;;;;;;5.72;1.30;;;17.60;99.90;;;;;;5066990;28;20533;-69
2022/10/03 14:29:05;;;;;;;8.30;1.75;;;17.60;99.90;;;;;;5061214;28;20100;-69
2022/10/03 14:32:01;;;;;;;3.92;1.80;;;17.50;99.90;;;;;;5074178;28;20040;-70
2022/10/03 14:34:40;;;;;;;2.92;1.60;;;17.50;99.90;;;;;;5070969;28;20086;-70
2022/10/03 14:37:18;;;;;;;7.32;1.60;;;17.50;99.90;;;;;;5072017;28;20041;-69
2022/10/03 14:40:26;;;;;;;8.30;1.63;;;17.50;99.90;;;;;;5070556;28;20043;-69
2022/10/03 14:43:01;;;;;;;6.85;1.83;;;17.60;99.90;;;;;;5069344;28;20036;-69
2022/10/03 14:45:38;;;;;;;5.15;1.40;;;17.60;99.90;;;;;;5072487;28;20035;-70
2022/10/03 14:48:11;;;;;;;2.97;1.27;;;17.60;99.90;;;;;;5072786;28;20116;-70